Aurora, CO (80015)

5:53 PM MST on January 30, 2015 (GMT -0700)
Piney Creek | Change Station
CLOSE
Current Station
Personal Weather Station
Location: Centennial, CO
Elevation: 5795 ft
Nearby Weather Stations

Elev 5795 ft 39.62 °N, 104.80 °W | Updated 7 seconds ago

Overcast
Overcast
41.2 °F
Feels Like 41 °F
N
0.0
Wind Variable Wind from NE
Gusts 3.0 mph

Today
High -- | Low -- °F
--% Chance of Precip.
Yesterday
High -- | Low -- °F
Precip. -- in
7:08 AM 5:16 PM
Waxing Gibbous, 86% visible
Pressure 30.09 in
Visibility 10.0 miles
Clouds Mostly Cloudy 7000 ft
Overcast 10000 ft
Windchill 41 °F
Dew Point 28 °F
Humidity 60%
Rainfall 0.00 in
Snow Depth Not available.
UV 0 out of 12
Pollen .30 out of 12
Air Quality Not available.
Flu Activity Not available.
METAR KAPA 302353Z 01008KT 10SM BKN070 OVC100 07/M04 A3008 RMK AO2 SLP190 T00671039 10089 20050 56002

More Conditions Fewer Conditions

Pressure 30.09 in
Visibility 10.0 miles
Clouds Mostly Cloudy 7000 ft
Overcast 10000 ft
Windchill 41 °F
Dew Point 28 °F
Humidity 60%
Rainfall 0.00 in
Snow Depth Not available.
UV 0 out of 12
Pollen .30 out of 12
Air Quality Not available.
Flu Activity Not available.
METAR KAPA 302353Z 01008KT 10SM BKN070 OVC100 07/M04 A3008 RMK AO2 SLP190 T00671039 10089 20050 56002

More Conditions Fewer Conditions

10-Day Weather Forecast

Almanac

Astronomy

Jan. 30, 2015 Rise Set
Actual Time
Civil Twilight
Nautical Twilight
Astronomical Twilight
Moon
Length of Visible Light
Length of Day
Tomorrow will be .
, % of the Moon is Illuminated

Today's Extremes

State Highs State Lows

Community

WunderPhotos

Upload Photos

1,791,942 photos uploaded!

WunderBlogs® & News

Nearby

Air Quality

  Air Quality AQ Index Pollutant
Not available.

Snow Depth

Station Depth Elevation

Earthquake Activity

City Distance Mag. Time & Date
Minimum magnitude displayed is 2.5.

Coastal Water Temperatures

Place Temperature

Nearby Weather Stations